createdAt,value
2019-05-07T00:01:51.390Z,98482.11
2019-05-07T00:04:22.270Z,98483.11
2019-05-07T00:06:52.822Z,98471.28
2019-05-07T00:09:23.249Z,98475.70
2019-05-07T00:11:53.455Z,98473.14
2019-05-07T00:14:23.265Z,98465.38
2019-05-07T00:16:53.468Z,98472.53
2019-05-07T00:19:24.793Z,98470.80
2019-05-07T00:21:54.210Z,98468.68
2019-05-07T00:24:23.507Z,98466.31
2019-05-07T00:26:53.332Z,98460.63
2019-05-07T00:29:22.796Z,98462.50
2019-05-07T00:31:52.238Z,98463.70
2019-05-07T00:34:23.272Z,98462.88
2019-05-07T00:37:22.036Z,98460.94
2019-05-07T00:40:09.014Z,98452.13
2019-05-07T00:42:56.308Z,98448.77
2019-05-07T00:45:35.519Z,98449.55
2019-05-07T00:48:04.792Z,98451.13
2019-05-07T00:50:35.749Z,98449.42
2019-05-07T00:53:05.029Z,98448.92
2019-05-07T00:55:34.375Z,98445.80
2019-05-07T00:58:03.634Z,98446.61
2019-05-07T01:00:33.422Z,98451.59
2019-05-07T01:03:03.171Z,98448.13
2019-05-07T01:05:32.733Z,98449.77
2019-05-07T01:08:02.704Z,98458.47
2019-05-07T01:10:32.985Z,98449.52
2019-05-07T01:13:02.820Z,98448.25
2019-05-07T01:15:34.648Z,98442.30
2019-05-07T01:18:03.227Z,98444.70
2019-05-07T01:20:33.059Z,98441.91
2019-05-07T01:23:02.717Z,98444.88
2019-05-07T01:25:32.872Z,98443.89
2019-05-07T01:28:03.567Z,98446.75
2019-05-07T01:30:32.867Z,98444.45
2019-05-07T01:33:08.341Z,98443.65
2019-05-07T01:35:55.685Z,98438.87
2019-05-07T01:38:25.096Z,98442.70
2019-05-07T01:40:58.843Z,98443.03
2019-05-07T01:43:28.137Z,98437.63
2019-05-07T01:45:57.446Z,98439.59
2019-05-07T01:48:26.733Z,98436.94
2019-05-07T01:50:56.036Z,98435.73
2019-05-07T01:53:25.341Z,98438.98
2019-05-07T01:55:54.616Z,98439.68
2019-05-07T01:58:24.316Z,98433.84
2019-05-07T02:00:53.645Z,98440.59
2019-05-07T02:03:29.659Z,98438.66
2019-05-07T02:06:16.111Z,98442.45
2019-05-07T02:08:58.550Z,98444.64
2019-05-07T02:11:33.470Z,98441.61
2019-05-07T02:14:02.729Z,98441.09
2019-05-07T02:16:32.677Z,98440.88
2019-05-07T02:19:02.271Z,98439.91
2019-05-07T02:21:49.407Z,98439.23
2019-05-07T02:24:18.695Z,98439.81
2019-05-07T02:26:47.959Z,98442.65
2019-05-07T02:29:17.261Z,98433.49
2019-05-07T02:31:46.550Z,98435.42
2019-05-07T02:34:15.814Z,98432.59
2019-05-07T02:36:45.899Z,98440.24
2019-05-07T02:39:24.081Z,98440.17
2019-05-07T02:41:54.160Z,98437.83
2019-05-07T02:44:23.779Z,98444.13
2019-05-07T02:47:09.009Z,98442.42
2019-05-07T02:49:53.363Z,98443.39
2019-05-07T02:52:26.911Z,98437.61
2019-05-07T02:55:15.100Z,98440.82
2019-05-07T02:57:44.398Z,98435.16
2019-05-07T03:00:19.086Z,98448.24
2019-05-07T03:02:49.521Z,98446.89
2019-05-07T03:05:18.802Z,98445.63
2019-05-07T03:07:48.051Z,98444.20
2019-05-07T03:10:17.351Z,98441.05
2019-05-07T03:12:46.919Z,98439.09
2019-05-07T03:15:16.203Z,98439.14
2019-05-07T03:17:45.462Z,98434.27
2019-05-07T03:20:18.591Z,98433.85
2019-05-07T03:22:49.184Z,98435.69
2019-05-07T03:25:33.562Z,98432.70
2019-05-07T03:28:04.162Z,98431.25
2019-05-07T03:30:46.149Z,98437.25
2019-05-07T03:33:27.340Z,98436.08
2019-05-07T03:35:57.793Z,98431.86
2019-05-07T03:38:28.522Z,98435.62
2019-05-07T03:40:59.376Z,98431.27
2019-05-07T03:43:38.854Z,98433.01
2019-05-07T03:46:13.948Z,98431.06
2019-05-07T03:48:44.039Z,98429.14
2019-05-07T03:51:13.783Z,98437.69
2019-05-07T03:53:43.832Z,98432.15
2019-05-07T03:56:13.494Z,98439.61
2019-05-07T03:58:43.661Z,98436.14
2019-05-07T04:01:13.658Z,98434.79
2019-05-07T04:03:44.747Z,98437.43
2019-05-07T04:06:14.309Z,98432.61
2019-05-07T04:08:43.653Z,98429.57
2019-05-07T04:11:13.819Z,98439.09
2019-05-07T04:13:44.357Z,98442.28
2019-05-07T04:16:13.924Z,98438.11
2019-05-07T04:18:44.365Z,98439.92
2019-05-07T04:21:14.101Z,98447.59
2019-05-07T04:23:44.196Z,98442.99
2019-05-07T04:26:27.832Z,98446.55
2019-05-07T04:29:05.801Z,98445.20
2019-05-07T04:31:37.103Z,98448.33
2019-05-07T04:34:34.833Z,98452.17
2019-05-07T04:37:04.161Z,98449.56
2019-05-07T04:39:33.599Z,98451.80
2019-05-07T04:42:03.525Z,98457.34
2019-05-07T04:44:33.323Z,98453.58
2019-05-07T04:47:04.319Z,98457.39
2019-05-07T04:49:33.704Z,98462.27
2019-05-07T04:52:11.335Z,98462.96
2019-05-07T04:54:43.524Z,98463.42
2019-05-07T04:57:25.977Z,98469.59
2019-05-07T04:59:57.220Z,98465.23
2019-05-07T05:03:05.813Z,98465.55
2019-05-07T05:05:53.212Z,98466.74
2019-05-07T05:08:23.820Z,98465.65
2019-05-07T05:10:54.133Z,98465.78
2019-05-07T05:13:25.299Z,98458.91
2019-05-07T05:15:54.910Z,98458.94
2019-05-07T05:18:24.508Z,98457.75
2019-05-07T05:21:24.047Z,98454.45
2019-05-07T05:24:01.835Z,98459.09
2019-05-07T05:26:32.469Z,98457.16
2019-05-07T05:29:02.520Z,98453.25
2019-05-07T05:31:33.045Z,98461.21
2019-05-07T05:34:02.956Z,98458.94
2019-05-07T05:36:33.125Z,98464.38
2019-05-07T05:39:02.783Z,98460.42
2019-05-07T05:41:37.748Z,98462.92
2019-05-07T05:44:28.122Z,98462.73
2019-05-07T05:46:57.460Z,98470.09
2019-05-07T05:49:26.738Z,98468.02
2019-05-07T05:52:05.869Z,98463.77
2019-05-07T05:54:43.041Z,98464.03
2019-05-07T05:57:32.128Z,98466.66
2019-05-07T06:00:42.160Z,98466.43
2019-05-07T06:03:47.783Z,98463.58
2019-05-07T06:07:01.183Z,98465.56
2019-05-07T06:09:36.425Z,98466.52
2019-05-07T06:12:24.053Z,98467.09
2019-05-07T06:14:57.102Z,98463.23
2019-05-07T06:17:48.588Z,98463.63
2019-05-07T06:20:46.271Z,98467.80
2019-05-07T06:23:25.901Z,98468.00
2019-05-07T06:25:55.208Z,98469.26
2019-05-07T06:28:24.496Z,98467.00
2019-05-07T06:30:53.785Z,98470.02
2019-05-07T06:33:23.327Z,98463.89
2019-05-07T06:35:54.001Z,98461.16
2019-05-07T06:38:24.328Z,98473.35
2019-05-07T06:41:02.659Z,98467.11
2019-05-07T06:43:45.525Z,98465.73
2019-05-07T06:46:14.785Z,98461.41
2019-05-07T06:48:46.231Z,98461.48
2019-05-07T06:51:17.446Z,98461.25
2019-05-07T06:53:47.552Z,98466.59
2019-05-07T06:56:16.839Z,98464.93
2019-05-07T06:59:03.853Z,98461.81
2019-05-07T07:02:07.494Z,98453.14
2019-05-07T07:04:42.694Z,98458.18
2019-05-07T07:07:29.884Z,98462.50
2019-05-07T07:10:08.889Z,98451.72
2019-05-07T07:12:38.211Z,98448.78
2019-05-07T07:15:07.847Z,98444.81
2019-05-07T07:17:37.134Z,98453.73
2019-05-07T07:20:06.923Z,98450.27
2019-05-07T07:22:36.209Z,98448.92
2019-05-07T07:25:06.703Z,98448.60
2019-05-07T07:27:36.131Z,98443.91
2019-05-07T07:30:28.504Z,98444.06
2019-05-07T07:32:59.297Z,98436.92
2019-05-07T07:35:28.581Z,98436.16
2019-05-07T07:37:57.894Z,98432.92
2019-05-07T07:40:42.266Z,98437.30
2019-05-07T07:43:12.885Z,98429.50
2019-05-07T07:45:42.326Z,98427.73
2019-05-07T07:48:13.189Z,98425.57
2019-05-07T07:50:42.636Z,98429.85
2019-05-07T07:53:13.483Z,98432.72
2019-05-07T07:56:02.529Z,98434.62
2019-05-07T07:58:38.474Z,98435.28
2019-05-07T08:01:15.768Z,98423.63
2019-05-07T08:03:45.067Z,98421.27
2019-05-07T08:06:14.386Z,98421.31
2019-05-07T08:08:43.884Z,98416.39
2019-05-07T08:11:13.275Z,98416.80
2019-05-07T08:13:42.641Z,98419.52
2019-05-07T08:16:12.960Z,98422.34
2019-05-07T08:18:43.545Z,98417.00
2019-05-07T08:21:13.104Z,98417.80
2019-05-07T08:23:43.495Z,98406.92
2019-05-07T08:26:14.209Z,98405.96
2019-05-07T08:28:43.507Z,98412.09
2019-05-07T08:31:22.582Z,98399.64
2019-05-07T08:34:02.093Z,98404.38
2019-05-07T08:36:33.133Z,98403.20
2019-05-07T08:39:02.709Z,98393.71
2019-05-07T08:41:32.057Z,98396.05
2019-05-07T08:44:15.468Z,98385.44
2019-05-07T08:47:08.897Z,98387.63
2019-05-07T08:49:40.392Z,98382.34
2019-05-07T08:52:12.016Z,98385.95
2019-05-07T08:54:42.835Z,98378.31
2019-05-07T08:57:12.545Z,98375.14
2019-05-07T08:59:46.728Z,98381.08
2019-05-07T09:02:13.082Z,98376.59
2019-05-07T09:04:42.449Z,98370.98
2019-05-07T09:07:13.017Z,98366.44
2019-05-07T09:09:42.877Z,98366.47
2019-05-07T09:12:12.576Z,98367.19
2019-05-07T09:14:42.581Z,98361.64
2019-05-07T09:17:12.723Z,98360.54
2019-05-07T09:19:50.849Z,98356.78
2019-05-07T09:22:13.396Z,98348.30
2019-05-07T09:24:43.135Z,98359.17
2019-05-07T09:27:29.123Z,98348.81
2019-05-07T09:30:17.344Z,98339.67
2019-05-07T09:33:14.944Z,98346.51
2019-05-07T09:35:47.773Z,98344.69
2019-05-07T09:38:17.086Z,98331.70
2019-05-07T09:40:46.349Z,98336.14
2019-05-07T09:43:15.687Z,98331.68
2019-05-07T09:45:44.990Z,98330.11
2019-05-07T09:48:14.284Z,98334.59
2019-05-07T09:50:44.220Z,98335.17
2019-05-07T09:53:13.546Z,98330.50
2019-05-07T09:55:42.838Z,98332.68
2019-05-07T09:58:12.700Z,98327.48
2019-05-07T10:00:42.622Z,98324.22
2019-05-07T10:03:12.840Z,98325.28
2019-05-07T10:05:42.902Z,98315.77
2019-05-07T10:08:13.061Z,98323.34
2019-05-07T10:10:43.991Z,98322.00
2019-05-07T10:13:23.712Z,98310.28
2019-05-07T10:15:53.191Z,98320.17
2019-05-07T10:18:22.948Z,98319.02
2019-05-07T10:20:52.519Z,98320.05
2019-05-07T10:23:22.853Z,98309.44
2019-05-07T10:25:54.709Z,98316.14
2019-05-07T10:28:24.814Z,98313.55
2019-05-07T10:30:54.946Z,98303.83
2019-05-07T10:33:24.469Z,98302.55
2019-05-07T10:35:53.747Z,98305.71
2019-05-07T10:38:23.414Z,98298.22
2019-05-07T10:40:52.738Z,98303.38
2019-05-07T10:43:22.333Z,98300.19
2019-05-07T10:46:29.300Z,98295.59
2019-05-07T10:49:17.443Z,98298.00
2019-05-07T10:51:46.692Z,98291.98
2019-05-07T10:54:15.987Z,98297.17
2019-05-07T10:56:47.027Z,98296.25
2019-05-07T10:59:16.332Z,98290.66
2019-05-07T11:01:54.494Z,98291.63
2019-05-07T11:04:23.833Z,98294.30
2019-05-07T11:06:53.254Z,98286.41
2019-05-07T11:09:22.613Z,98288.06
2019-05-07T11:11:51.996Z,98291.41
2019-05-07T11:14:21.759Z,98293.02
2019-05-07T11:17:08.920Z,98293.12
2019-05-07T11:19:38.274Z,98292.91
2019-05-07T11:22:07.573Z,98286.63
2019-05-07T11:24:36.937Z,98280.94
2019-05-07T11:27:06.234Z,98277.48
2019-05-07T11:29:36.629Z,98274.09
2019-05-07T11:32:06.133Z,98277.64
2019-05-07T11:34:37.316Z,98278.73
2019-05-07T11:37:06.661Z,98274.48
2019-05-07T11:39:35.963Z,98267.77
2019-05-07T11:42:29.871Z,98260.07
2019-05-07T11:44:59.142Z,98257.08
2019-05-07T11:47:31.912Z,98249.15
2019-05-07T11:50:32.968Z,98249.34
2019-05-07T11:53:07.770Z,98246.38
2019-05-07T11:55:37.120Z,98244.53
2019-05-07T11:58:07.862Z,98238.59
2019-05-07T12:00:45.636Z,98237.53
2019-05-07T12:03:15.066Z,98238.83
2019-05-07T12:05:44.371Z,98236.72
2019-05-07T12:08:13.666Z,98237.98
2019-05-07T12:10:44.091Z,98232.78
2019-05-07T12:13:13.360Z,98236.08
2019-05-07T12:15:42.928Z,98229.06
2019-05-07T12:18:12.427Z,98221.65
2019-05-07T12:20:41.758Z,98220.62
2019-05-07T12:23:12.129Z,98219.67
2019-05-07T12:25:42.389Z,98218.30
2019-05-07T12:28:13.294Z,98214.02
2019-05-07T12:31:12.131Z,98215.63
2019-05-07T12:33:52.283Z,98209.91
2019-05-07T12:36:24.638Z,98203.95
2019-05-07T12:38:53.903Z,98211.09
2019-05-07T12:41:34.131Z,98198.78
2019-05-07T12:44:06.122Z,98198.22
2019-05-07T12:46:36.886Z,98207.27
2019-05-07T12:49:06.628Z,98196.80
2019-05-07T12:51:53.484Z,98195.55
2019-05-07T12:54:44.767Z,98192.98
2019-05-07T12:57:14.057Z,98191.81
2019-05-07T12:59:43.360Z,98188.70
2019-05-07T13:02:41.081Z,98191.27
2019-05-07T13:05:11.765Z,98191.06
2019-05-07T13:07:57.747Z,98189.91
2019-05-07T13:10:27.046Z,98184.00
2019-05-07T13:12:56.370Z,98183.20
2019-05-07T13:15:28.054Z,98182.05
2019-05-07T13:17:56.831Z,98172.52
2019-05-07T13:20:26.440Z,98176.63
2019-05-07T13:22:55.844Z,98173.36
2019-05-07T13:25:28.357Z,98174.66
2019-05-07T13:27:56.350Z,98170.23
2019-05-07T13:30:25.734Z,98169.44
2019-05-07T13:32:56.374Z,98167.97
2019-05-07T13:35:27.016Z,98164.34
2019-05-07T13:38:14.794Z,98165.19
2019-05-07T13:40:57.806Z,98165.59
2019-05-07T13:43:31.951Z,98156.78
2019-05-07T13:46:12.275Z,98153.20
2019-05-07T13:48:45.514Z,98155.71
2019-05-07T13:51:13.796Z,98143.99
2019-05-07T13:53:44.120Z,98144.08
2019-05-07T13:56:13.530Z,98137.91
2019-05-07T13:58:42.985Z,98140.66
2019-05-07T14:01:20.364Z,98135.69
2019-05-07T14:03:49.803Z,98133.37
2019-05-07T14:06:38.577Z,98129.97
2019-05-07T14:09:28.674Z,98129.98
2019-05-07T14:11:58.110Z,98129.10
2019-05-07T14:14:27.583Z,98122.12
2019-05-07T14:16:57.372Z,98113.44
2019-05-07T14:19:26.651Z,98117.80
2019-05-07T14:21:57.417Z,98118.77
2019-05-07T14:24:28.511Z,98117.19
2019-05-07T14:26:58.369Z,98112.25
2019-05-07T14:29:27.639Z,98112.34
2019-05-07T14:32:04.452Z,98108.55
2019-05-07T14:34:55.515Z,98107.58
2019-05-07T14:37:28.656Z,98114.84
2019-05-07T14:39:57.950Z,98113.83
2019-05-07T14:42:38.695Z,98109.61
2019-05-07T14:45:08.481Z,98102.73
2019-05-07T14:47:37.802Z,98102.35
2019-05-07T14:50:07.723Z,98099.56
2019-05-07T14:52:36.978Z,98105.43
2019-05-07T14:55:06.864Z,98114.08
2019-05-07T14:57:36.816Z,98101.68
2019-05-07T15:00:07.696Z,98098.31
2019-05-07T15:02:38.924Z,98098.88
2019-05-07T15:05:12.068Z,98099.34
2019-05-07T15:07:44.371Z,98094.13
2019-05-07T15:10:16.687Z,98092.03
2019-05-07T15:12:48.141Z,98102.89
2019-05-07T15:15:21.796Z,98092.17
2019-05-07T15:18:02.454Z,98091.26
2019-05-07T15:20:33.901Z,98087.80
2019-05-07T15:23:12.051Z,98087.18
2019-05-07T15:25:42.225Z,98087.91
2019-05-07T15:28:12.252Z,98082.48
2019-05-07T15:31:06.595Z,98090.14
2019-05-07T15:33:35.932Z,98089.75
2019-05-07T15:36:06.584Z,98093.91
2019-05-07T15:38:36.022Z,98090.03
2019-05-07T15:41:05.431Z,98086.13
2019-05-07T15:43:34.748Z,98080.25
2019-05-07T15:46:04.115Z,98088.00
2019-05-07T15:48:33.428Z,98088.42
2019-05-07T15:51:02.697Z,98083.77
2019-05-07T15:53:38.494Z,98087.39
2019-05-07T15:56:09.243Z,98088.36
2019-05-07T15:58:38.551Z,98087.20
2019-05-07T16:01:07.828Z,98076.19
2019-05-07T16:03:42.685Z,98078.34
2019-05-07T16:06:12.653Z,98079.91
2019-05-07T16:08:53.814Z,98071.06
2019-05-07T16:11:23.612Z,98067.99
2019-05-07T16:14:27.261Z,98068.33
2019-05-07T16:17:07.771Z,98071.80
2019-05-07T16:19:37.072Z,98067.31
2019-05-07T16:22:12.813Z,98066.95
2019-05-07T16:24:42.291Z,98062.56
2019-05-07T16:27:12.097Z,98059.13
2019-05-07T16:29:42.074Z,98058.48
2019-05-07T16:32:13.363Z,98050.95
2019-05-07T16:34:43.036Z,98041.79
2019-05-07T16:37:12.818Z,98047.52
2019-05-07T16:39:42.283Z,98045.41
2019-05-07T16:42:11.715Z,98044.90
2019-05-07T16:44:41.733Z,98045.62
2019-05-07T16:47:12.153Z,98043.61
2019-05-07T16:49:43.299Z,98048.50
2019-05-07T16:52:12.748Z,98044.94
2019-05-07T16:54:44.908Z,98046.30
2019-05-07T16:57:47.094Z,98046.83
2019-05-07T17:00:24.511Z,98039.34
2019-05-07T17:02:56.068Z,98046.32
2019-05-07T17:05:31.938Z,98039.83
2019-05-07T17:08:19.336Z,98040.63
2019-05-07T17:10:49.043Z,98035.99
2019-05-07T17:13:18.793Z,98040.17
2019-05-07T17:15:55.494Z,98035.37
2019-05-07T17:18:25.808Z,98029.50
2019-05-07T17:20:56.669Z,98026.05
2019-05-07T17:23:41.354Z,98027.95
2019-05-07T17:26:00.204Z,98030.08
2019-05-07T17:28:31.773Z,98029.59
2019-05-07T17:31:02.915Z,98026.76
2019-05-07T17:33:32.079Z,98031.67
2019-05-07T17:36:02.829Z,98026.69
2019-05-07T17:38:32.381Z,98018.77
2019-05-07T17:41:13.630Z,98021.30
2019-05-07T17:43:34.645Z,98010.67
2019-05-07T17:46:03.909Z,98014.88
2019-05-07T17:48:33.336Z,98012.98
2019-05-07T17:51:24.413Z,98017.16
2019-05-07T17:53:59.752Z,98018.16
2019-05-07T17:56:26.757Z,98013.11
2019-05-07T17:58:57.792Z,98016.97
2019-05-07T18:01:52.333Z,98014.33
2019-05-07T18:04:23.622Z,98019.16
2019-05-07T18:06:54.091Z,98014.40
2019-05-07T18:09:23.423Z,98013.48
2019-05-07T18:11:52.897Z,98011.32
2019-05-07T18:14:22.896Z,98010.02
2019-05-07T18:17:15.615Z,98012.89
2019-05-07T18:19:47.262Z,98012.18
2019-05-07T18:22:18.036Z,98004.95
2019-05-07T18:24:47.282Z,98005.61
2019-05-07T18:27:23.548Z,98004.69
2019-05-07T18:29:52.832Z,98001.23
2019-05-07T18:32:23.503Z,98003.60
2019-05-07T18:34:53.165Z,98007.58
2019-05-07T18:37:23.054Z,97999.80
2019-05-07T18:39:52.385Z,97999.45
2019-05-07T18:42:22.644Z,98006.98
2019-05-07T18:44:52.398Z,98000.28
2019-05-07T18:47:22.468Z,97996.95
2019-05-07T18:49:52.406Z,97997.03
2019-05-07T18:52:23.010Z,98003.00
2019-05-07T18:54:53.620Z,98003.36
2019-05-07T18:57:23.423Z,98003.98
2019-05-07T18:59:53.879Z,98002.23
2019-05-07T19:02:23.166Z,98003.20
2019-05-07T19:04:52.445Z,98000.98
2019-05-07T19:07:23.004Z,98009.01
2019-05-07T19:09:52.626Z,98007.27
2019-05-07T19:12:24.819Z,98006.16
2019-05-07T19:14:54.122Z,98011.85
2019-05-07T19:17:25.687Z,98013.00
2019-05-07T19:19:54.612Z,98007.57
2019-05-07T19:22:23.915Z,98013.01
2019-05-07T19:24:53.232Z,98013.71
2019-05-07T19:27:22.517Z,98010.19
2019-05-07T19:29:51.790Z,98010.09
2019-05-07T19:32:22.852Z,98009.08
2019-05-07T19:34:53.369Z,98015.55
2019-05-07T19:37:22.807Z,98015.19
2019-05-07T19:39:52.430Z,98017.48
2019-05-07T19:42:21.771Z,98017.03
2019-05-07T19:44:51.839Z,98015.44
2019-05-07T19:47:23.262Z,98024.16
2019-05-07T19:49:52.593Z,98021.30
2019-05-07T19:52:23.130Z,98014.95
2019-05-07T19:55:01.238Z,98011.00
2019-05-07T19:57:29.758Z,98011.72
2019-05-07T19:59:59.062Z,98006.05
2019-05-07T20:02:33.341Z,98008.78
2019-05-07T20:05:03.502Z,98000.43
2019-05-07T20:07:39.662Z,98003.63
2019-05-07T20:10:12.091Z,98010.94
2019-05-07T20:12:42.888Z,98002.02
2019-05-07T20:15:13.418Z,98000.09
2019-05-07T20:17:42.691Z,97998.51
2019-05-07T20:20:12.602Z,97988.09
2019-05-07T20:22:42.036Z,97981.84
2019-05-07T20:25:18.792Z,97985.86
2019-05-07T20:27:42.865Z,97984.50
2019-05-07T20:30:13.609Z,97984.23
2019-05-07T20:32:42.925Z,97981.06
2019-05-07T20:35:13.998Z,97977.91
2019-05-07T20:37:43.317Z,97973.60
2019-05-07T20:40:12.789Z,97976.81
2019-05-07T20:42:42.810Z,97976.13
2019-05-07T20:45:12.551Z,97977.97
2019-05-07T20:47:42.236Z,97982.27
2019-05-07T20:50:12.724Z,97976.59
2019-05-07T20:52:42.355Z,97973.30
2019-05-07T20:55:30.536Z,97972.84
2019-05-07T20:57:53.610Z,97969.80
2019-05-07T21:00:26.255Z,97975.47
2019-05-07T21:03:13.415Z,97980.45
2019-05-07T21:05:42.754Z,97979.45
2019-05-07T21:08:13.733Z,97979.31
2019-05-07T21:10:43.340Z,97971.14
2019-05-07T21:13:26.908Z,97967.28
2019-05-07T21:15:44.440Z,97963.19
2019-05-07T21:18:14.508Z,97966.34
2019-05-07T21:20:43.912Z,97962.25
2019-05-07T21:23:13.294Z,97971.72
2019-05-07T21:25:45.939Z,97975.58
2019-05-07T21:28:14.004Z,97963.31
2019-05-07T21:30:43.576Z,97966.00
2019-05-07T21:33:14.273Z,97963.74
2019-05-07T21:35:43.919Z,97964.31
2019-05-07T21:38:14.343Z,97958.94
2019-05-07T21:40:43.935Z,97952.73
2019-05-07T21:43:15.623Z,97953.20
2019-05-07T21:45:45.145Z,97957.08
2019-05-07T21:48:14.649Z,97954.69
2019-05-07T21:50:44.754Z,97958.17
2019-05-07T21:53:37.857Z,97960.75
2019-05-07T21:56:30.144Z,97955.60
2019-05-07T21:59:05.978Z,97954.52
2019-05-07T22:01:52.609Z,97948.09
2019-05-07T22:04:22.119Z,97944.53
2019-05-07T22:06:52.398Z,97949.69
2019-05-07T22:09:22.451Z,97946.55
2019-05-07T22:11:53.759Z,97949.77
2019-05-07T22:14:23.823Z,97938.68
2019-05-07T22:16:54.614Z,97935.11
2019-05-07T22:19:24.107Z,97935.03
2019-05-07T22:21:54.224Z,97929.64
2019-05-07T22:24:24.061Z,97924.69
2019-05-07T22:26:53.336Z,97930.05
2019-05-07T22:29:23.072Z,97918.72
2019-05-07T22:32:22.415Z,97923.03
2019-05-07T22:35:02.910Z,97915.63
2019-05-07T22:37:32.554Z,97916.28
2019-05-07T22:40:02.897Z,97912.59
2019-05-07T22:42:32.856Z,97908.33
2019-05-07T22:45:02.757Z,97904.27
2019-05-07T22:47:32.701Z,97898.36
2019-05-07T22:50:02.839Z,97898.13
2019-05-07T22:52:32.744Z,97891.39
2019-05-07T22:55:02.166Z,97888.11
2019-05-07T22:57:37.795Z,97887.81
2019-05-07T23:00:09.067Z,97882.78
2019-05-07T23:02:38.381Z,97878.08
2019-05-07T23:05:08.056Z,97876.00
2019-05-07T23:07:37.326Z,97867.45
2019-05-07T23:10:06.700Z,97866.64
2019-05-07T23:12:35.995Z,97866.03
2019-05-07T23:15:06.321Z,97861.08
2019-05-07T23:17:35.624Z,97859.92
2019-05-07T23:20:05.102Z,97860.25
2019-05-07T23:22:34.396Z,97860.65
2019-05-07T23:25:03.735Z,97868.63
2019-05-07T23:27:32.986Z,97860.43
2019-05-07T23:30:02.661Z,97865.75
2019-05-07T23:32:33.885Z,97862.48
2019-05-07T23:35:03.183Z,97856.88
2019-05-07T23:37:33.092Z,97849.63
2019-05-07T23:40:06.626Z,97847.73
2019-05-07T23:42:37.499Z,97840.97
2019-05-07T23:45:07.608Z,97838.26
2019-05-07T23:47:36.884Z,97829.23
2019-05-07T23:50:06.292Z,97830.89
2019-05-07T23:52:35.550Z,97832.51
2019-05-07T23:55:05.207Z,97825.09
2019-05-07T23:57:34.565Z,97819.61
